sensor_id;sensor_type;location;lat;lon;timestamp;temperature;humidity
51305;HTU21D;37392;50.964;6.952;2024-01-11T00:01:57;-4.67;102.15
51305;HTU21D;37392;50.964;6.952;2024-01-11T00:04:23;-4.78;101.80
51305;HTU21D;37392;50.964;6.952;2024-01-11T00:06:50;-4.93;101.52
51305;HTU21D;37392;50.964;6.952;2024-01-11T00:09:15;-4.96;102.48
51305;HTU21D;37392;50.964;6.952;2024-01-11T00:11:41;-5.01;102.75
51305;HTU21D;37392;50.964;6.952;2024-01-11T00:14:07;-5.00;102.89
51305;HTU21D;37392;50.964;6.952;2024-01-11T00:16:32;-5.11;102.91
51305;HTU21D;37392;50.964;6.952;2024-01-11T00:18:58;-5.22;103.00
51305;HTU21D;37392;50.964;6.952;2024-01-11T00:21:24;-5.22;103.31
51305;HTU21D;37392;50.964;6.952;2024-01-11T00:23:49;-5.27;103.23
51305;HTU21D;37392;50.964;6.952;2024-01-11T00:26:15;-5.34;103.34
51305;HTU21D;37392;50.964;6.952;2024-01-11T00:28:41;-5.38;103.59
51305;HTU21D;37392;50.964;6.952;2024-01-11T00:31:06;-5.42;103.73
51305;HTU21D;37392;50.964;6.952;2024-01-11T00:33:32;-5.37;104.28
51305;HTU21D;37392;50.964;6.952;2024-01-11T00:35:58;-5.38;104.47
51305;HTU21D;37392;50.964;6.952;2024-01-11T00:38:24;-5.38;104.55
51305;HTU21D;37392;50.964;6.952;2024-01-11T00:40:49;-5.42;104.89
51305;HTU21D;37392;50.964;6.952;2024-01-11T00:43:15;-5.46;105.04
51305;HTU21D;37392;50.964;6.952;2024-01-11T00:45:40;-5.46;105.33
51305;HTU21D;37392;50.964;6.952;2024-01-11T00:48:06;-5.50;105.11
51305;HTU21D;37392;50.964;6.952;2024-01-11T00:50:31;-5.60;105.13
51305;HTU21D;37392;50.964;6.952;2024-01-11T00:52:57;-5.70;105.09
51305;HTU21D;37392;50.964;6.952;2024-01-11T00:55:23;-5.72;105.80
51305;HTU21D;37392;50.964;6.952;2024-01-11T00:57:49;-5.81;105.83
51305;HTU21D;37392;50.964;6.952;2024-01-11T01:00:16;-5.74;106.45
51305;HTU21D;37392;50.964;6.952;2024-01-11T01:02:41;-5.76;106.33
51305;HTU21D;37392;50.964;6.952;2024-01-11T01:05:07;-5.82;106.26
51305;HTU21D;37392;50.964;6.952;2024-01-11T01:07:33;-5.86;106.30
51305;HTU21D;37392;50.964;6.952;2024-01-11T01:09:59;-5.85;106.34
51305;HTU21D;37392;50.964;6.952;2024-01-11T01:12:24;-5.89;106.62
51305;HTU21D;37392;50.964;6.952;2024-01-11T01:14:54;-5.97;106.66
51305;HTU21D;37392;50.964;6.952;2024-01-11T01:17:21;-6.04;106.66
51305;HTU21D;37392;50.964;6.952;2024-01-11T01:19:47;-6.11;106.79
51305;HTU21D;37392;50.964;6.952;2024-01-11T01:22:13;-6.09;106.97
51305;HTU21D;37392;50.964;6.952;2024-01-11T01:24:39;-6.15;106.95
51305;HTU21D;37392;50.964;6.952;2024-01-11T01:27:04;-6.13;107.30
51305;HTU21D;37392;50.964;6.952;2024-01-11T01:29:30;-6.18;107.52
51305;HTU21D;37392;50.964;6.952;2024-01-11T01:31:55;-6.18;107.85
51305;HTU21D;37392;50.964;6.952;2024-01-11T01:34:21;-6.23;107.90
51305;HTU21D;37392;50.964;6.952;2024-01-11T01:36:46;-6.27;107.77
51305;HTU21D;37392;50.964;6.952;2024-01-11T01:39:12;-6.30;107.98
51305;HTU21D;37392;50.964;6.952;2024-01-11T01:41:38;-6.28;108.11
51305;HTU21D;37392;50.964;6.952;2024-01-11T01:44:03;-6.30;108.12
51305;HTU21D;37392;50.964;6.952;2024-01-11T01:46:29;-6.33;108.30
51305;HTU21D;37392;50.964;6.952;2024-01-11T01:48:57;-6.36;108.33
51305;HTU21D;37392;50.964;6.952;2024-01-11T01:51:24;-6.41;108.23
51305;HTU21D;37392;50.964;6.952;2024-01-11T01:53:53;-6.44;108.43
51305;HTU21D;37392;50.964;6.952;2024-01-11T01:56:20;-6.45;108.47
51305;HTU21D;37392;50.964;6.952;2024-01-11T01:58:47;-6.47;108.62
51305;HTU21D;37392;50.964;6.952;2024-01-11T02:01:18;-6.50;108.72
51305;HTU21D;37392;50.964;6.952;2024-01-11T02:03:45;-6.47;108.79
51305;HTU21D;37392;50.964;6.952;2024-01-11T02:06:13;-6.49;108.69
51305;HTU21D;37392;50.964;6.952;2024-01-11T02:08:40;-6.53;108.80
51305;HTU21D;37392;50.964;6.952;2024-01-11T02:11:08;-6.59;108.93
51305;HTU21D;37392;50.964;6.952;2024-01-11T02:13:33;-6.63;108.89
51305;HTU21D;37392;50.964;6.952;2024-01-11T02:15:59;-6.62;108.89
51305;HTU21D;37392;50.964;6.952;2024-01-11T02:18:25;-6.63;108.95
51305;HTU21D;37392;50.964;6.952;2024-01-11T02:20:50;-6.68;108.95
51305;HTU21D;37392;50.964;6.952;2024-01-11T02:23:17;-6.72;109.64
51305;HTU21D;37392;50.964;6.952;2024-01-11T02:25:45;-6.67;110.04
51305;HTU21D;37392;50.964;6.952;2024-01-11T02:28:10;-6.60;110.03
51305;HTU21D;37392;50.964;6.952;2024-01-11T02:30:36;-6.63;109.54
51305;HTU21D;37392;50.964;6.952;2024-01-11T02:33:03;-6.68;109.71
51305;HTU21D;37392;50.964;6.952;2024-01-11T02:35:30;-6.70;109.65
51305;HTU21D;37392;50.964;6.952;2024-01-11T02:37:57;-6.70;110.26
51305;HTU21D;37392;50.964;6.952;2024-01-11T02:40:23;-6.74;110.07
51305;HTU21D;37392;50.964;6.952;2024-01-11T02:42:51;-6.74;110.12
51305;HTU21D;37392;50.964;6.952;2024-01-11T02:45:16;-6.73;110.58
51305;HTU21D;37392;50.964;6.952;2024-01-11T02:47:42;-6.70;110.81
51305;HTU21D;37392;50.964;6.952;2024-01-11T02:50:08;-6.58;111.65
51305;HTU21D;37392;50.964;6.952;2024-01-11T02:52:34;-6.47;111.91
51305;HTU21D;37392;50.964;6.952;2024-01-11T02:55:00;-6.46;111.48
51305;HTU21D;37392;50.964;6.952;2024-01-11T02:57:25;-6.47;110.91
51305;HTU21D;37392;50.964;6.952;2024-01-11T02:59:51;-6.49;110.87
51305;HTU21D;37392;50.964;6.952;2024-01-11T03:02:17;-6.56;110.64
51305;HTU21D;37392;50.964;6.952;2024-01-11T03:04:42;-6.63;110.57
51305;HTU21D;37392;50.964;6.952;2024-01-11T03:07:08;-6.70;110.64
51305;HTU21D;37392;50.964;6.952;2024-01-11T03:09:33;-6.74;110.72
51305;HTU21D;37392;50.964;6.952;2024-01-11T03:11:59;-6.72;110.87
51305;HTU21D;37392;50.964;6.952;2024-01-11T03:14:25;-6.77;110.94
51305;HTU21D;37392;50.964;6.952;2024-01-11T03:16:50;-6.77;111.02
51305;HTU21D;37392;50.964;6.952;2024-01-11T03:19:16;-6.78;111.20
51305;HTU21D;37392;50.964;6.952;2024-01-11T03:21:45;-6.60;112.00
51305;HTU21D;37392;50.964;6.952;2024-01-11T03:24:12;-6.47;112.00
51305;HTU21D;37392;50.964;6.952;2024-01-11T03:26:38;-6.46;111.12
51305;HTU21D;37392;50.964;6.952;2024-01-11T03:29:03;-6.55;110.84
51305;HTU21D;37392;50.964;6.952;2024-01-11T03:31:29;-6.56;110.78
51305;HTU21D;37392;50.964;6.952;2024-01-11T03:33:54;-6.65;110.78
51305;HTU21D;37392;50.964;6.952;2024-01-11T03:36:23;-6.72;110.81
51305;HTU21D;37392;50.964;6.952;2024-01-11T03:38:52;-6.72;111.05
51305;HTU21D;37392;50.964;6.952;2024-01-11T03:41:17;-6.75;111.05
51305;HTU21D;37392;50.964;6.952;2024-01-11T03:43:43;-6.81;110.99
51305;HTU21D;37392;50.964;6.952;2024-01-11T03:46:09;-6.85;111.07
51305;HTU21D;37392;50.964;6.952;2024-01-11T03:48:35;-6.85;111.56
51305;HTU21D;37392;50.964;6.952;2024-01-11T03:51:03;-6.87;111.41
51305;HTU21D;37392;50.964;6.952;2024-01-11T03:53:29;-6.86;111.75
51305;HTU21D;37392;50.964;6.952;2024-01-11T03:55:54;-6.82;112.00
51305;HTU21D;37392;50.964;6.952;2024-01-11T03:58:20;-6.83;111.98
51305;HTU21D;37392;50.964;6.952;2024-01-11T04:00:46;-6.78;112.68
51305;HTU21D;37392;50.964;6.952;2024-01-11T04:03:11;-6.85;112.24
51305;HTU21D;37392;50.964;6.952;2024-01-11T04:05:37;-7.00;111.81
51305;HTU21D;37392;50.964;6.952;2024-01-11T04:08:06;-7.09;111.63
51305;HTU21D;37392;50.964;6.952;2024-01-11T04:10:35;-7.08;112.32
51305;HTU21D;37392;50.964;6.952;2024-01-11T04:13:00;-7.03;112.87
51305;HTU21D;37392;50.964;6.952;2024-01-11T04:15:26;-7.12;112.35
51305;HTU21D;37392;50.964;6.952;2024-01-11T04:17:52;-7.20;112.29
51305;HTU21D;37392;50.964;6.952;2024-01-11T04:20:17;-7.26;112.21
51305;HTU21D;37392;50.964;6.952;2024-01-11T04:22:43;-7.29;112.29
51305;HTU21D;37392;50.964;6.952;2024-01-11T04:25:09;-7.33;112.33
51305;HTU21D;37392;50.964;6.952;2024-01-11T04:27:34;-7.36;112.40
51305;HTU21D;37392;50.964;6.952;2024-01-11T04:30:00;-7.41;112.40
51305;HTU21D;37392;50.964;6.952;2024-01-11T04:32:25;-7.42;112.51
51305;HTU21D;37392;50.964;6.952;2024-01-11T04:34:51;-7.36;112.83
51305;HTU21D;37392;50.964;6.952;2024-01-11T04:37:17;-7.39;112.68
51305;HTU21D;37392;50.964;6.952;2024-01-11T04:39:43;-7.42;112.52
51305;HTU21D;37392;50.964;6.952;2024-01-11T04:42:08;-7.40;112.98
51305;HTU21D;37392;50.964;6.952;2024-01-11T04:44:34;-7.41;112.76
51305;HTU21D;37392;50.964;6.952;2024-01-11T04:46:59;-7.41;112.86
51305;HTU21D;37392;50.964;6.952;2024-01-11T04:49:25;-7.32;113.29
51305;HTU21D;37392;50.964;6.952;2024-01-11T04:51:51;-7.36;112.99
51305;HTU21D;37392;50.964;6.952;2024-01-11T04:54:16;-7.40;112.72
51305;HTU21D;37392;50.964;6.952;2024-01-11T04:56:42;-7.40;112.74
51305;HTU21D;37392;50.964;6.952;2024-01-11T04:59:07;-7.39;112.67
51305;HTU21D;37392;50.964;6.952;2024-01-11T05:01:33;-7.42;112.60
51305;HTU21D;37392;50.964;6.952;2024-01-11T05:03:58;-7.39;112.85
51305;HTU21D;37392;50.964;6.952;2024-01-11T05:06:24;-7.41;112.54
51305;HTU21D;37392;50.964;6.952;2024-01-11T05:08:51;-7.47;112.42
51305;HTU21D;37392;50.964;6.952;2024-01-11T05:11:21;-7.50;112.58
51305;HTU21D;37392;50.964;6.952;2024-01-11T05:13:49;-7.50;112.93
51305;HTU21D;37392;50.964;6.952;2024-01-11T05:16:36;-7.50;113.19
51305;HTU21D;37392;50.964;6.952;2024-01-11T05:19:01;-7.57;113.13
51305;HTU21D;37392;50.964;6.952;2024-01-11T05:21:27;-7.49;113.45
51305;HTU21D;37392;50.964;6.952;2024-01-11T05:23:52;-7.42;113.32
51305;HTU21D;37392;50.964;6.952;2024-01-11T05:26:18;-7.49;113.10
51305;HTU21D;37392;50.964;6.952;2024-01-11T05:28:44;-7.59;113.11
51305;HTU21D;37392;50.964;6.952;2024-01-11T05:31:16;-7.61;113.25
51305;HTU21D;37392;50.964;6.952;2024-01-11T05:33:42;-7.60;113.46
51305;HTU21D;37392;50.964;6.952;2024-01-11T05:36:08;-7.62;113.37
51305;HTU21D;37392;50.964;6.952;2024-01-11T05:38:34;-7.66;113.29
51305;HTU21D;37392;50.964;6.952;2024-01-11T05:41:00;-7.67;113.42
51305;HTU21D;37392;50.964;6.952;2024-01-11T05:43:27;-7.72;113.36
51305;HTU21D;37392;50.964;6.952;2024-01-11T05:45:52;-7.65;114.11
51305;HTU21D;37392;50.964;6.952;2024-01-11T05:48:18;-7.63;114.12
51305;HTU21D;37392;50.964;6.952;2024-01-11T05:50:44;-7.40;114.89
51305;HTU21D;37392;50.964;6.952;2024-01-11T05:53:11;-7.44;114.19
51305;HTU21D;37392;50.964;6.952;2024-01-11T05:55:37;-7.47;113.82
51305;HTU21D;37392;50.964;6.952;2024-01-11T05:58:03;-7.49;113.61
51305;HTU21D;37392;50.964;6.952;2024-01-11T06:00:31;-7.45;114.46
51305;HTU21D;37392;50.964;6.952;2024-01-11T06:02:57;-7.44;114.17
51305;HTU21D;37392;50.964;6.952;2024-01-11T06:05:22;-7.27;115.22
51305;HTU21D;37392;50.964;6.952;2024-01-11T06:07:48;-7.35;114.59
51305;HTU21D;37392;50.964;6.952;2024-01-11T06:10:17;-7.44;114.06
51305;HTU21D;37392;50.964;6.952;2024-01-11T06:12:42;-7.47;114.04
51305;HTU21D;37392;50.964;6.952;2024-01-11T06:15:08;-7.35;115.32
51305;HTU21D;37392;50.964;6.952;2024-01-11T06:17:35;-7.36;115.09
51305;HTU21D;37392;50.964;6.952;2024-01-11T06:20:01;-7.40;114.46
51305;HTU21D;37392;50.964;6.952;2024-01-11T06:22:27;-7.49;114.06
51305;HTU21D;37392;50.964;6.952;2024-01-11T06:24:52;-7.62;113.77
51305;HTU21D;37392;50.964;6.952;2024-01-11T06:27:18;-7.77;113.61
51305;HTU21D;37392;50.964;6.952;2024-01-11T06:29:44;-7.80;113.87
51305;HTU21D;37392;50.964;6.952;2024-01-11T06:32:09;-7.84;114.01
51305;HTU21D;37392;50.964;6.952;2024-01-11T06:34:35;-7.70;115.01
51305;HTU21D;37392;50.964;6.952;2024-01-11T06:37:02;-7.61;115.38
51305;HTU21D;37392;50.964;6.952;2024-01-11T06:39:28;-7.46;117.11
51305;HTU21D;37392;50.964;6.952;2024-01-11T06:41:55;-7.44;115.28
51305;HTU21D;37392;50.964;6.952;2024-01-11T06:44:20;-7.54;114.58
51305;HTU21D;37392;50.964;6.952;2024-01-11T06:46:46;-7.67;114.12
51305;HTU21D;37392;50.964;6.952;2024-01-11T06:49:12;-7.77;114.35
51305;HTU21D;37392;50.964;6.952;2024-01-11T06:51:37;-7.80;115.12
51305;HTU21D;37392;50.964;6.952;2024-01-11T06:54:04;-7.81;115.14
51305;HTU21D;37392;50.964;6.952;2024-01-11T06:56:30;-7.81;115.01
51305;HTU21D;37392;50.964;6.952;2024-01-11T06:58:55;-7.87;115.01
51305;HTU21D;37392;50.964;6.952;2024-01-11T07:01:21;-7.82;115.34
51305;HTU21D;37392;50.964;6.952;2024-01-11T07:03:47;-7.81;116.45
51305;HTU21D;37392;50.964;6.952;2024-01-11T07:06:13;-7.87;115.21
51305;HTU21D;37392;50.964;6.952;2024-01-11T07:08:39;-7.82;116.75
51305;HTU21D;37392;50.964;6.952;2024-01-11T07:11:04;-7.84;116.50
51305;HTU21D;37392;50.964;6.952;2024-01-11T07:13:31;-7.85;116.45
51305;HTU21D;37392;50.964;6.952;2024-01-11T07:15:57;-7.78;116.89
51305;HTU21D;37392;50.964;6.952;2024-01-11T07:18:23;-7.67;117.50
51305;HTU21D;37392;50.964;6.952;2024-01-11T07:20:51;-7.62;117.37
51305;HTU21D;37392;50.964;6.952;2024-01-11T07:23:20;-7.68;116.93
51305;HTU21D;37392;50.964;6.952;2024-01-11T07:25:46;-7.77;115.38
51305;HTU21D;37392;50.964;6.952;2024-01-11T07:28:12;-7.64;117.10
51305;HTU21D;37392;50.964;6.952;2024-01-11T07:30:38;-7.50;118.01
51305;HTU21D;37392;50.964;6.952;2024-01-11T07:33:07;-7.39;118.03
51305;HTU21D;37392;50.964;6.952;2024-01-11T07:35:36;-7.44;117.15
51305;HTU21D;37392;50.964;6.952;2024-01-11T07:38:08;-7.45;116.94
51305;HTU21D;37392;50.964;6.952;2024-01-11T07:40:34;-7.37;117.44
51305;HTU21D;37392;50.964;6.952;2024-01-11T07:43:00;-7.38;116.70
51305;HTU21D;37392;50.964;6.952;2024-01-11T07:45:29;-7.44;115.32
51305;HTU21D;37392;50.964;6.952;2024-01-11T07:47:55;-7.41;116.61
51305;HTU21D;37392;50.964;6.952;2024-01-11T07:50:22;-7.38;116.83
51305;HTU21D;37392;50.964;6.952;2024-01-11T07:52:47;-7.35;116.73
51305;HTU21D;37392;50.964;6.952;2024-01-11T07:55:16;-7.32;116.70
51305;HTU21D;37392;50.964;6.952;2024-01-11T07:57:42;-7.13;117.46
51305;HTU21D;37392;50.964;6.952;2024-01-11T08:00:08;-6.94;117.47
51305;HTU21D;37392;50.964;6.952;2024-01-11T08:02:35;-6.67;117.73
51305;HTU21D;37392;50.964;6.952;2024-01-11T08:05:00;-6.43;117.92
51305;HTU21D;37392;50.964;6.952;2024-01-11T08:07:29;-6.19;117.61
51305;HTU21D;37392;50.964;6.952;2024-01-11T08:09:55;-5.82;118.24
51305;HTU21D;37392;50.964;6.952;2024-01-11T08:12:21;-5.41;118.89
51305;HTU21D;37392;50.964;6.952;2024-01-11T08:14:47;-5.07;117.95
51305;HTU21D;37392;50.964;6.952;2024-01-11T08:17:13;-4.78;115.16
51305;HTU21D;37392;50.964;6.952;2024-01-11T08:19:39;-4.60;113.75
51305;HTU21D;37392;50.964;6.952;2024-01-11T08:22:06;-4.41;111.77
51305;HTU21D;37392;50.964;6.952;2024-01-11T08:24:31;-4.07;111.47
51305;HTU21D;37392;50.964;6.952;2024-01-11T08:26:57;-3.85;110.50
51305;HTU21D;37392;50.964;6.952;2024-01-11T08:29:23;-3.56;109.14
51305;HTU21D;37392;50.964;6.952;2024-01-11T08:31:48;-3.37;108.43
51305;HTU21D;37392;50.964;6.952;2024-01-11T08:34:14;-3.01;109.27
51305;HTU21D;37392;50.964;6.952;2024-01-11T08:36:40;-2.83;106.83
51305;HTU21D;37392;50.964;6.952;2024-01-11T08:39:06;-2.72;105.00
51305;HTU21D;37392;50.964;6.952;2024-01-11T08:41:32;-2.46;105.31
51305;HTU21D;37392;50.964;6.952;2024-01-11T08:43:58;-2.19;105.54
51305;HTU21D;37392;50.964;6.952;2024-01-11T08:46:25;-1.94;104.79
51305;HTU21D;37392;50.964;6.952;2024-01-11T08:48:54;-1.73;102.72
51305;HTU21D;37392;50.964;6.952;2024-01-11T08:51:21;-1.56;100.93
51305;HTU21D;37392;50.964;6.952;2024-01-11T08:53:47;-1.52;98.74
51305;HTU21D;37392;50.964;6.952;2024-01-11T08:56:13;-1.26;99.77
51305;HTU21D;37392;50.964;6.952;2024-01-11T08:58:40;-0.94;97.69
51305;HTU21D;37392;50.964;6.952;2024-01-11T09:01:05;-0.90;95.55
51305;HTU21D;37392;50.964;6.952;2024-01-11T09:03:34;-0.47;95.49
51305;HTU21D;37392;50.964;6.952;2024-01-11T09:06:01;-0.31;95.59
51305;HTU21D;37392;50.964;6.952;2024-01-11T09:08:27;-0.25;95.24
51305;HTU21D;37392;50.964;6.952;2024-01-11T09:10:52;0.10;92.96
51305;HTU21D;37392;50.964;6.952;2024-01-11T09:13:18;0.51;91.46
51305;HTU21D;37392;50.964;6.952;2024-01-11T09:15:44;0.38;90.89
51305;HTU21D;37392;50.964;6.952;2024-01-11T09:18:10;0.76;90.37
51305;HTU21D;37392;50.964;6.952;2024-01-11T09:20:36;1.10;90.04
51305;HTU21D;37392;50.964;6.952;2024-01-11T09:23:01;1.24;86.39
51305;HTU21D;37392;50.964;6.952;2024-01-11T09:25:33;1.47;85.84
51305;HTU21D;37392;50.964;6.952;2024-01-11T09:27:59;1.47;83.68
51305;HTU21D;37392;50.964;6.952;2024-01-11T09:30:24;1.58;84.64
51305;HTU21D;37392;50.964;6.952;2024-01-11T09:32:50;1.68;82.65
51305;HTU21D;37392;50.964;6.952;2024-01-11T09:35:15;1.43;83.00
51305;HTU21D;37392;50.964;6.952;2024-01-11T09:37:41;1.52;85.05
51305;HTU21D;37392;50.964;6.952;2024-01-11T09:40:08;1.32;84.51
51305;HTU21D;37392;50.964;6.952;2024-01-11T09:42:36;1.43;85.21
51305;HTU21D;37392;50.964;6.952;2024-01-11T09:45:08;1.83;84.10
51305;HTU21D;37392;50.964;6.952;2024-01-11T09:47:36;2.42;84.06
51305;HTU21D;37392;50.964;6.952;2024-01-11T09:50:06;2.37;79.39
51305;HTU21D;37392;50.964;6.952;2024-01-11T09:52:32;2.44;80.65
51305;HTU21D;37392;50.964;6.952;2024-01-11T09:54:59;2.57;78.92
51305;HTU21D;37392;50.964;6.952;2024-01-11T09:57:29;2.73;78.02
51305;HTU21D;37392;50.964;6.952;2024-01-11T09:59:58;2.87;78.30
51305;HTU21D;37392;50.964;6.952;2024-01-11T10:02:24;3.03;77.26
51305;HTU21D;37392;50.964;6.952;2024-01-11T10:04:54;2.76;78.37
51305;HTU21D;37392;50.964;6.952;2024-01-11T10:07:22;2.94;79.07
51305;HTU21D;37392;50.964;6.952;2024-01-11T10:09:48;3.40;77.21
51305;HTU21D;37392;50.964;6.952;2024-01-11T10:12:15;3.87;75.80
51305;HTU21D;37392;50.964;6.952;2024-01-11T10:14:41;4.06;73.54
51305;HTU21D;37392;50.964;6.952;2024-01-11T10:17:07;4.22;73.32
51305;HTU21D;37392;50.964;6.952;2024-01-11T10:19:32;4.23;72.39
51305;HTU21D;37392;50.964;6.952;2024-01-11T10:21:58;4.54;72.85
51305;HTU21D;37392;50.964;6.952;2024-01-11T10:24:24;5.02;71.32
51305;HTU21D;37392;50.964;6.952;2024-01-11T10:26:55;5.10;70.55
51305;HTU21D;37392;50.964;6.952;2024-01-11T10:29:21;5.48;68.89
51305;HTU21D;37392;50.964;6.952;2024-01-11T10:31:47;5.06;68.37
51305;HTU21D;37392;50.964;6.952;2024-01-11T10:34:12;5.47;69.23
51305;HTU21D;37392;50.964;6.952;2024-01-11T10:36:38;5.31;67.69
51305;HTU21D;37392;50.964;6.952;2024-01-11T10:39:07;5.26;68.71
51305;HTU21D;37392;50.964;6.952;2024-01-11T10:41:39;5.79;68.46
51305;HTU21D;37392;50.964;6.952;2024-01-11T10:44:14;5.85;66.76
51305;HTU21D;37392;50.964;6.952;2024-01-11T10:46:50;6.29;66.75
51305;HTU21D;37392;50.964;6.952;2024-01-11T10:49:18;6.12;65.41
51305;HTU21D;37392;50.964;6.952;2024-01-11T10:51:57;6.82;65.54
51305;HTU21D;37392;50.964;6.952;2024-01-11T10:54:24;6.61;63.69
51305;HTU21D;37392;50.964;6.952;2024-01-11T10:56:53;6.60;63.74
51305;HTU21D;37392;50.964;6.952;2024-01-11T10:59:21;6.06;63.36
51305;HTU21D;37392;50.964;6.952;2024-01-11T11:01:54;5.06;64.69
51305;HTU21D;37392;50.964;6.952;2024-01-11T11:04:21;4.13;67.67
51305;HTU21D;37392;50.964;6.952;2024-01-11T11:06:51;3.48;70.16
51305;HTU21D;37392;50.964;6.952;2024-01-11T11:09:20;2.86;72.13
51305;HTU21D;37392;50.964;6.952;2024-01-11T11:11:48;2.30;73.89
51305;HTU21D;37392;50.964;6.952;2024-01-11T11:14:15;1.86;75.83
51305;HTU21D;37392;50.964;6.952;2024-01-11T11:16:41;1.68;77.18
51305;HTU21D;37392;50.964;6.952;2024-01-11T11:19:07;1.45;78.55
51305;HTU21D;37392;50.964;6.952;2024-01-11T11:21:42;1.16;79.85
51305;HTU21D;37392;50.964;6.952;2024-01-11T11:24:08;0.97;81.01
51305;HTU21D;37392;50.964;6.952;2024-01-11T11:26:34;0.79;81.86
51305;HTU21D;37392;50.964;6.952;2024-01-11T11:29:00;0.79;82.33
51305;HTU21D;37392;50.964;6.952;2024-01-11T11:34:07;0.65;83.37
51305;HTU21D;37392;50.964;6.952;2024-01-11T11:36:35;0.63;83.86
51305;HTU21D;37392;50.964;6.952;2024-01-11T11:39:01;0.63;84.42
51305;HTU21D;37392;50.964;6.952;2024-01-11T11:41:29;0.67;84.59
51305;HTU21D;37392;50.964;6.952;2024-01-11T11:44:03;0.63;84.71
51305;HTU21D;37392;50.964;6.952;2024-01-11T11:46:29;0.55;84.73
51305;HTU21D;37392;50.964;6.952;2024-01-11T11:48:56;0.58;85.09
51305;HTU21D;37392;50.964;6.952;2024-01-11T11:51:22;0.59;85.33
51305;HTU21D;37392;50.964;6.952;2024-01-11T11:53:50;0.61;85.42
51305;HTU21D;37392;50.964;6.952;2024-01-11T11:56:23;0.66;85.57
51305;HTU21D;37392;50.964;6.952;2024-01-11T11:58:49;0.62;85.64
51305;HTU21D;37392;50.964;6.952;2024-01-11T12:01:17;0.64;86.09
51305;HTU21D;37392;50.964;6.952;2024-01-11T12:03:44;0.65;86.24
51305;HTU21D;37392;50.964;6.952;2024-01-11T12:06:14;0.64;86.31
51305;HTU21D;37392;50.964;6.952;2024-01-11T12:08:44;0.55;86.40
51305;HTU21D;37392;50.964;6.952;2024-01-11T12:11:14;0.52;86.46
51305;HTU21D;37392;50.964;6.952;2024-01-11T12:13:42;0.51;86.74
51305;HTU21D;37392;50.964;6.952;2024-01-11T12:16:10;0.52;86.82
51305;HTU21D;37392;50.964;6.952;2024-01-11T12:18:36;0.54;87.15
51305;HTU21D;37392;50.964;6.952;2024-01-11T12:21:02;0.55;87.20
51305;HTU21D;37392;50.964;6.952;2024-01-11T12:23:28;0.54;87.29
51305;HTU21D;37392;50.964;6.952;2024-01-11T12:25:57;0.54;87.48
51305;HTU21D;37392;50.964;6.952;2024-01-11T12:28:23;0.53;87.67
51305;HTU21D;37392;50.964;6.952;2024-01-11T12:30:49;0.50;87.55
51305;HTU21D;37392;50.964;6.952;2024-01-11T12:33:15;0.48;87.65
51305;HTU21D;37392;50.964;6.952;2024-01-11T12:35:41;0.49;87.73
51305;HTU21D;37392;50.964;6.952;2024-01-11T12:38:07;0.46;87.90
51305;HTU21D;37392;50.964;6.952;2024-01-11T12:40:35;0.49;88.40
51305;HTU21D;37392;50.964;6.952;2024-01-11T12:43:05;0.47;88.54
51305;HTU21D;37392;50.964;6.952;2024-01-11T12:45:33;0.46;88.50
51305;HTU21D;37392;50.964;6.952;2024-01-11T12:48:03;0.49;88.67
51305;HTU21D;37392;50.964;6.952;2024-01-11T12:50:30;0.44;88.94
51305;HTU21D;37392;50.964;6.952;2024-01-11T12:53:09;0.43;88.90
51305;HTU21D;37392;50.964;6.952;2024-01-11T12:55:46;0.40;89.12
51305;HTU21D;37392;50.964;6.952;2024-01-11T12:58:12;0.38;89.12
51305;HTU21D;37392;50.964;6.952;2024-01-11T13:00:39;0.36;89.31
51305;HTU21D;37392;50.964;6.952;2024-01-11T13:03:05;0.37;89.12
51305;HTU21D;37392;50.964;6.952;2024-01-11T13:05:32;0.35;88.90
51305;HTU21D;37392;50.964;6.952;2024-01-11T13:08:01;0.43;89.15
51305;HTU21D;37392;50.964;6.952;2024-01-11T13:10:29;0.40;88.72
51305;HTU21D;37392;50.964;6.952;2024-01-11T13:12:55;0.40;88.54
51305;HTU21D;37392;50.964;6.952;2024-01-11T13:15:22;0.43;88.35
51305;HTU21D;37392;50.964;6.952;2024-01-11T13:17:48;0.44;88.18
51305;HTU21D;37392;50.964;6.952;2024-01-11T13:20:14;0.43;88.21
51305;HTU21D;37392;50.964;6.952;2024-01-11T13:22:40;0.48;88.22
51305;HTU21D;37392;50.964;6.952;2024-01-11T13:25:06;0.52;87.94
51305;HTU21D;37392;50.964;6.952;2024-01-11T13:27:32;0.53;87.96
51305;HTU21D;37392;50.964;6.952;2024-01-11T13:29:57;0.55;88.14
51305;HTU21D;37392;50.964;6.952;2024-01-11T13:32:23;0.57;88.16
51305;HTU21D;37392;50.964;6.952;2024-01-11T13:34:49;0.53;88.15
51305;HTU21D;37392;50.964;6.952;2024-01-11T13:37:18;0.51;87.99
51305;HTU21D;37392;50.964;6.952;2024-01-11T13:39:45;0.47;88.12
51305;HTU21D;37392;50.964;6.952;2024-01-11T13:42:10;0.49;88.46
51305;HTU21D;37392;50.964;6.952;2024-01-11T13:44:36;0.46;88.57
51305;HTU21D;37392;50.964;6.952;2024-01-11T13:47:03;0.42;88.55
51305;HTU21D;37392;50.964;6.952;2024-01-11T13:49:28;0.43;88.73
51305;HTU21D;37392;50.964;6.952;2024-01-11T13:51:54;0.44;89.07
51305;HTU21D;37392;50.964;6.952;2024-01-11T13:54:19;0.40;88.99
51305;HTU21D;37392;50.964;6.952;2024-01-11T13:56:47;0.42;89.29
51305;HTU21D;37392;50.964;6.952;2024-01-11T13:59:12;0.44;89.39
51305;HTU21D;37392;50.964;6.952;2024-01-11T14:01:38;0.42;89.20
51305;HTU21D;37392;50.964;6.952;2024-01-11T14:04:03;0.43;88.99
51305;HTU21D;37392;50.964;6.952;2024-01-11T14:06:29;0.42;89.13
51305;HTU21D;37392;50.964;6.952;2024-01-11T14:08:55;0.38;88.84
51305;HTU21D;37392;50.964;6.952;2024-01-11T14:11:20;0.37;88.98
51305;HTU21D;37392;50.964;6.952;2024-01-11T14:13:46;0.38;88.87
51305;HTU21D;37392;50.964;6.952;2024-01-11T14:16:11;0.36;88.80
51305;HTU21D;37392;50.964;6.952;2024-01-11T14:18:38;0.36;89.04
51305;HTU21D;37392;50.964;6.952;2024-01-11T14:21:05;0.38;88.73
51305;HTU21D;37392;50.964;6.952;2024-01-11T14:23:30;0.38;88.38
51305;HTU21D;37392;50.964;6.952;2024-01-11T14:25:57;0.34;88.43
51305;HTU21D;37392;50.964;6.952;2024-01-11T14:28:22;0.29;88.27
51305;HTU21D;37392;50.964;6.952;2024-01-11T14:30:48;0.30;88.39
51305;HTU21D;37392;50.964;6.952;2024-01-11T14:33:13;0.32;88.28
51305;HTU21D;37392;50.964;6.952;2024-01-11T14:35:39;0.39;87.04
51305;HTU21D;37392;50.964;6.952;2024-01-11T14:38:05;0.42;86.89
51305;HTU21D;37392;50.964;6.952;2024-01-11T14:40:30;0.42;85.74
51305;HTU21D;37392;50.964;6.952;2024-01-11T14:42:56;0.35;85.73
51305;HTU21D;37392;50.964;6.952;2024-01-11T14:45:21;0.35;86.00
51305;HTU21D;37392;50.964;6.952;2024-01-11T14:47:47;0.29;85.77
51305;HTU21D;37392;50.964;6.952;2024-01-11T14:50:12;0.33;84.93
51305;HTU21D;37392;50.964;6.952;2024-01-11T14:52:38;0.31;84.74
51305;HTU21D;37392;50.964;6.952;2024-01-11T14:55:08;0.25;84.87
51305;HTU21D;37392;50.964;6.952;2024-01-11T14:57:35;0.23;84.63
51305;HTU21D;37392;50.964;6.952;2024-01-11T15:00:01;0.19;85.02
51305;HTU21D;37392;50.964;6.952;2024-01-11T15:02:27;0.13;85.38
51305;HTU21D;37392;50.964;6.952;2024-01-11T15:04:53;0.06;85.49
51305;HTU21D;37392;50.964;6.952;2024-01-11T15:07:18;0.03;86.09
51305;HTU21D;37392;50.964;6.952;2024-01-11T15:09:44;-0.08;86.25
51305;HTU21D;37392;50.964;6.952;2024-01-11T15:12:09;-0.06;86.04